sensor_id;sensor_type;location;lat;lon;timestamp;P1;durP1;ratioP1;P2;durP2;ratioP2
52686;SDS011;38584;49.426;8.396;2022-11-09T00:00:02;15.38;;;4.50;;
52686;SDS011;38584;49.426;8.396;2022-11-09T00:02:29;13.27;;;5.07;;
52686;SDS011;38584;49.426;8.396;2022-11-09T00:04:54;11.43;;;4.53;;
52686;SDS011;38584;49.426;8.396;2022-11-09T00:07:19;16.10;;;4.63;;
52686;SDS011;38584;49.426;8.396;2022-11-09T00:09:45;21.40;;;5.10;;
52686;SDS011;38584;49.426;8.396;2022-11-09T00:12:10;13.80;;;5.15;;
52686;SDS011;38584;49.426;8.396;2022-11-09T00:14:35;15.05;;;5.10;;
52686;SDS011;38584;49.426;8.396;2022-11-09T00:17:02;13.57;;;5.30;;
52686;SDS011;38584;49.426;8.396;2022-11-09T00:19:28;13.52;;;4.88;;
52686;SDS011;38584;49.426;8.396;2022-11-09T00:21:53;12.50;;;5.28;;
52686;SDS011;38584;49.426;8.396;2022-11-09T00:24:18;16.02;;;5.40;;
52686;SDS011;38584;49.426;8.396;2022-11-09T00:26:43;15.48;;;5.75;;
52686;SDS011;38584;49.426;8.396;2022-11-09T00:29:09;13.93;;;5.75;;
52686;SDS011;38584;49.426;8.396;2022-11-09T00:31:34;14.27;;;5.72;;
52686;SDS011;38584;49.426;8.396;2022-11-09T00:34:00;16.73;;;6.45;;
52686;SDS011;38584;49.426;8.396;2022-11-09T00:36:26;13.52;;;6.07;;
52686;SDS011;38584;49.426;8.396;2022-11-09T00:38:56;14.23;;;6.10;;
52686;SDS011;38584;49.426;8.396;2022-11-09T00:41:22;13.40;;;5.65;;
52686;SDS011;38584;49.426;8.396;2022-11-09T00:43:48;10.77;;;5.00;;
52686;SDS011;38584;49.426;8.396;2022-11-09T00:46:14;13.38;;;5.38;;
52686;SDS011;38584;49.426;8.396;2022-11-09T00:48:39;13.82;;;5.65;;
52686;SDS011;38584;49.426;8.396;2022-11-09T00:51:05;14.43;;;5.30;;
52686;SDS011;38584;49.426;8.396;2022-11-09T00:53:31;13.48;;;5.20;;
52686;SDS011;38584;49.426;8.396;2022-11-09T00:56:06;14.10;;;6.20;;
52686;SDS011;38584;49.426;8.396;2022-11-09T00:58:33;15.68;;;5.30;;
52686;SDS011;38584;49.426;8.396;2022-11-09T01:01:04;15.43;;;5.97;;
52686;SDS011;38584;49.426;8.396;2022-11-09T01:03:31;15.88;;;5.85;;
52686;SDS011;38584;49.426;8.396;2022-11-09T01:05:57;15.30;;;6.03;;
52686;SDS011;38584;49.426;8.396;2022-11-09T01:08:23;13.85;;;5.35;;
52686;SDS011;38584;49.426;8.396;2022-11-09T01:10:49;14.02;;;5.78;;
52686;SDS011;38584;49.426;8.396;2022-11-09T01:13:15;14.18;;;5.90;;
52686;SDS011;38584;49.426;8.396;2022-11-09T01:15:42;16.45;;;6.47;;
52686;SDS011;38584;49.426;8.396;2022-11-09T01:18:11;15.50;;;6.20;;
52686;SDS011;38584;49.426;8.396;2022-11-09T01:20:37;14.73;;;6.07;;
52686;SDS011;38584;49.426;8.396;2022-11-09T01:23:04;16.38;;;6.47;;
52686;SDS011;38584;49.426;8.396;2022-11-09T01:25:29;15.48;;;6.25;;
52686;SDS011;38584;49.426;8.396;2022-11-09T01:27:54;13.82;;;6.75;;
52686;SDS011;38584;49.426;8.396;2022-11-09T01:30:20;14.52;;;5.63;;
52686;SDS011;38584;49.426;8.396;2022-11-09T01:32:45;14.15;;;5.85;;
52686;SDS011;38584;49.426;8.396;2022-11-09T01:35:10;12.88;;;6.32;;
52686;SDS011;38584;49.426;8.396;2022-11-09T01:37:36;13.80;;;6.75;;
52686;SDS011;38584;49.426;8.396;2022-11-09T01:40:01;16.27;;;8.48;;
52686;SDS011;38584;49.426;8.396;2022-11-09T01:42:26;18.15;;;9.30;;
52686;SDS011;38584;49.426;8.396;2022-11-09T01:47:41;19.55;;;10.70;;
52686;SDS011;38584;49.426;8.396;2022-11-09T01:50:08;17.13;;;9.82;;
52686;SDS011;38584;49.426;8.396;2022-11-09T01:52:35;22.42;;;10.27;;
52686;SDS011;38584;49.426;8.396;2022-11-09T01:55:04;22.05;;;10.27;;
52686;SDS011;38584;49.426;8.396;2022-11-09T01:57:33;23.00;;;10.32;;
52686;SDS011;38584;49.426;8.396;2022-11-09T02:00:06;19.17;;;10.70;;
52686;SDS011;38584;49.426;8.396;2022-11-09T02:02:34;19.13;;;10.73;;
52686;SDS011;38584;49.426;8.396;2022-11-09T02:05:02;19.40;;;10.55;;
52686;SDS011;38584;49.426;8.396;2022-11-09T02:07:31;18.10;;;9.93;;
52686;SDS011;38584;49.426;8.396;2022-11-09T02:12:31;23.30;;;11.40;;
52686;SDS011;38584;49.426;8.396;2022-11-09T02:14:58;21.10;;;11.15;;
52686;SDS011;38584;49.426;8.396;2022-11-09T02:17:23;22.33;;;10.73;;
52686;SDS011;38584;49.426;8.396;2022-11-09T02:19:49;19.48;;;10.20;;
52686;SDS011;38584;49.426;8.396;2022-11-09T02:22:15;17.23;;;8.82;;
52686;SDS011;38584;49.426;8.396;2022-11-09T02:24:40;16.83;;;8.82;;
52686;SDS011;38584;49.426;8.396;2022-11-09T02:27:06;16.95;;;9.20;;
52686;SDS011;38584;49.426;8.396;2022-11-09T02:29:33;19.58;;;8.93;;
52686;SDS011;38584;49.426;8.396;2022-11-09T02:32:00;22.17;;;8.90;;
52686;SDS011;38584;49.426;8.396;2022-11-09T02:34:29;15.60;;;8.85;;
52686;SDS011;38584;49.426;8.396;2022-11-09T02:36:54;15.93;;;8.77;;
52686;SDS011;38584;49.426;8.396;2022-11-09T02:39:20;16.20;;;7.95;;
52686;SDS011;38584;49.426;8.396;2022-11-09T02:41:49;21.20;;;8.73;;
52686;SDS011;38584;49.426;8.396;2022-11-09T02:44:17;17.48;;;8.75;;
52686;SDS011;38584;49.426;8.396;2022-11-09T02:46:43;16.73;;;8.80;;
52686;SDS011;38584;49.426;8.396;2022-11-09T02:49:09;17.10;;;8.57;;
52686;SDS011;38584;49.426;8.396;2022-11-09T02:51:34;19.17;;;9.30;;
52686;SDS011;38584;49.426;8.396;2022-11-09T02:53:59;16.30;;;9.52;;
52686;SDS011;38584;49.426;8.396;2022-11-09T02:56:25;20.85;;;9.63;;
52686;SDS011;38584;49.426;8.396;2022-11-09T02:58:50;18.15;;;10.13;;
52686;SDS011;38584;49.426;8.396;2022-11-09T03:01:15;20.60;;;10.75;;
52686;SDS011;38584;49.426;8.396;2022-11-09T03:03:41;19.77;;;10.95;;
52686;SDS011;38584;49.426;8.396;2022-11-09T03:06:06;18.73;;;10.82;;
52686;SDS011;38584;49.426;8.396;2022-11-09T03:08:31;21.17;;;10.60;;
52686;SDS011;38584;49.426;8.396;2022-11-09T03:11:00;17.35;;;10.68;;
52686;SDS011;38584;49.426;8.396;2022-11-09T03:13:25;20.15;;;11.80;;
52686;SDS011;38584;49.426;8.396;2022-11-09T03:15:51;23.33;;;12.25;;
52686;SDS011;38584;49.426;8.396;2022-11-09T03:18:16;23.40;;;12.05;;
52686;SDS011;38584;49.426;8.396;2022-11-09T03:20:41;21.42;;;12.35;;
52686;SDS011;38584;49.426;8.396;2022-11-09T03:23:06;24.77;;;12.60;;
52686;SDS011;38584;49.426;8.396;2022-11-09T03:25:32;21.65;;;12.52;;
52686;SDS011;38584;49.426;8.396;2022-11-09T03:28:01;20.08;;;12.52;;
52686;SDS011;38584;49.426;8.396;2022-11-09T03:30:28;22.77;;;12.65;;
52686;SDS011;38584;49.426;8.396;2022-11-09T03:32:57;19.33;;;12.63;;
52686;SDS011;38584;49.426;8.396;2022-11-09T03:35:26;23.08;;;13.30;;
52686;SDS011;38584;49.426;8.396;2022-11-09T03:37:51;20.60;;;12.77;;
52686;SDS011;38584;49.426;8.396;2022-11-09T03:40:17;26.10;;;14.07;;
52686;SDS011;38584;49.426;8.396;2022-11-09T03:42:43;22.02;;;13.88;;
52686;SDS011;38584;49.426;8.396;2022-11-09T03:45:09;23.33;;;12.88;;
52686;SDS011;38584;49.426;8.396;2022-11-09T03:47:37;21.52;;;13.13;;
52686;SDS011;38584;49.426;8.396;2022-11-09T03:50:04;22.52;;;13.32;;
52686;SDS011;38584;49.426;8.396;2022-11-09T03:52:30;21.70;;;13.35;;
52686;SDS011;38584;49.426;8.396;2022-11-09T03:54:55;22.35;;;13.90;;
52686;SDS011;38584;49.426;8.396;2022-11-09T03:57:20;21.98;;;13.48;;
52686;SDS011;38584;49.426;8.396;2022-11-09T03:59:46;21.92;;;13.25;;
52686;SDS011;38584;49.426;8.396;2022-11-09T04:02:11;25.42;;;14.15;;
52686;SDS011;38584;49.426;8.396;2022-11-09T04:04:36;22.88;;;14.15;;
52686;SDS011;38584;49.426;8.396;2022-11-09T04:07:02;22.30;;;13.68;;
52686;SDS011;38584;49.426;8.396;2022-11-09T04:09:27;22.92;;;13.93;;
52686;SDS011;38584;49.426;8.396;2022-11-09T04:11:52;22.67;;;13.38;;
52686;SDS011;38584;49.426;8.396;2022-11-09T04:14:18;25.30;;;13.48;;
52686;SDS011;38584;49.426;8.396;2022-11-09T04:16:43;20.75;;;12.63;;
52686;SDS011;38584;49.426;8.396;2022-11-09T04:19:08;23.08;;;13.55;;
52686;SDS011;38584;49.426;8.396;2022-11-09T04:21:33;21.90;;;14.00;;
52686;SDS011;38584;49.426;8.396;2022-11-09T04:23:59;21.50;;;14.07;;
52686;SDS011;38584;49.426;8.396;2022-11-09T04:26:24;26.27;;;14.63;;
52686;SDS011;38584;49.426;8.396;2022-11-09T04:28:49;24.73;;;14.63;;
52686;SDS011;38584;49.426;8.396;2022-11-09T04:31:15;27.75;;;14.38;;
52686;SDS011;38584;49.426;8.396;2022-11-09T04:33:40;26.33;;;14.63;;
52686;SDS011;38584;49.426;8.396;2022-11-09T04:36:05;21.92;;;14.95;;
52686;SDS011;38584;49.426;8.396;2022-11-09T04:38:31;25.88;;;14.95;;
52686;SDS011;38584;49.426;8.396;2022-11-09T04:41:00;23.17;;;14.57;;
52686;SDS011;38584;49.426;8.396;2022-11-09T04:43:27;23.85;;;14.85;;
52686;SDS011;38584;49.426;8.396;2022-11-09T04:45:52;25.60;;;14.77;;
52686;SDS011;38584;49.426;8.396;2022-11-09T04:48:17;21.92;;;14.80;;
52686;SDS011;38584;49.426;8.396;2022-11-09T04:50:43;24.00;;;14.90;;
52686;SDS011;38584;49.426;8.396;2022-11-09T04:53:12;25.15;;;15.25;;
52686;SDS011;38584;49.426;8.396;2022-11-09T04:55:38;22.63;;;14.73;;
52686;SDS011;38584;49.426;8.396;2022-11-09T04:58:04;26.38;;;15.27;;
52686;SDS011;38584;49.426;8.396;2022-11-09T05:00:29;26.08;;;15.38;;
52686;SDS011;38584;49.426;8.396;2022-11-09T05:02:57;22.58;;;14.75;;
52686;SDS011;38584;49.426;8.396;2022-11-09T05:05:23;23.98;;;14.95;;
52686;SDS011;38584;49.426;8.396;2022-11-09T05:07:49;24.70;;;14.95;;
52686;SDS011;38584;49.426;8.396;2022-11-09T05:10:14;24.23;;;14.43;;
52686;SDS011;38584;49.426;8.396;2022-11-09T05:12:39;21.92;;;13.65;;
52686;SDS011;38584;49.426;8.396;2022-11-09T05:15:05;22.67;;;13.80;;
52686;SDS011;38584;49.426;8.396;2022-11-09T05:17:31;23.67;;;13.63;;
52686;SDS011;38584;49.426;8.396;2022-11-09T05:19:56;23.25;;;12.43;;
52686;SDS011;38584;49.426;8.396;2022-11-09T05:22:21;19.80;;;12.50;;
52686;SDS011;38584;49.426;8.396;2022-11-09T05:25:05;20.13;;;12.13;;
52686;SDS011;38584;49.426;8.396;2022-11-09T05:27:31;26.00;;;12.73;;
52686;SDS011;38584;49.426;8.396;2022-11-09T05:29:56;21.85;;;12.48;;
52686;SDS011;38584;49.426;8.396;2022-11-09T05:32:21;21.52;;;12.48;;
52686;SDS011;38584;49.426;8.396;2022-11-09T05:34:47;22.33;;;12.82;;
52686;SDS011;38584;49.426;8.396;2022-11-09T05:37:12;23.80;;;12.63;;
52686;SDS011;38584;49.426;8.396;2022-11-09T05:39:37;21.65;;;12.80;;
52686;SDS011;38584;49.426;8.396;2022-11-09T05:42:03;21.88;;;12.55;;
52686;SDS011;38584;49.426;8.396;2022-11-09T05:44:28;21.40;;;12.48;;
52686;SDS011;38584;49.426;8.396;2022-11-09T05:46:54;23.73;;;13.05;;
52686;SDS011;38584;49.426;8.396;2022-11-09T05:49:19;24.42;;;12.55;;
52686;SDS011;38584;49.426;8.396;2022-11-09T05:51:45;20.88;;;12.65;;
52686;SDS011;38584;49.426;8.396;2022-11-09T05:54:10;21.55;;;13.23;;
52686;SDS011;38584;49.426;8.396;2022-11-09T05:56:35;22.02;;;14.05;;
52686;SDS011;38584;49.426;8.396;2022-11-09T05:59:01;21.77;;;13.30;;
52686;SDS011;38584;49.426;8.396;2022-11-09T06:01:26;23.00;;;13.88;;
52686;SDS011;38584;49.426;8.396;2022-11-09T06:03:54;23.55;;;14.05;;
52686;SDS011;38584;49.426;8.396;2022-11-09T06:06:19;21.55;;;13.38;;
52686;SDS011;38584;49.426;8.396;2022-11-09T06:08:45;21.55;;;12.82;;
52686;SDS011;38584;49.426;8.396;2022-11-09T06:11:10;21.85;;;12.75;;
52686;SDS011;38584;49.426;8.396;2022-11-09T06:13:36;22.40;;;12.82;;
52686;SDS011;38584;49.426;8.396;2022-11-09T06:16:03;23.15;;;13.38;;
52686;SDS011;38584;49.426;8.396;2022-11-09T06:18:30;20.33;;;12.98;;
52686;SDS011;38584;49.426;8.396;2022-11-09T06:20:56;21.95;;;12.85;;
52686;SDS011;38584;49.426;8.396;2022-11-09T06:23:23;20.42;;;13.23;;
52686;SDS011;38584;49.426;8.396;2022-11-09T06:25:56;22.80;;;12.70;;
52686;SDS011;38584;49.426;8.396;2022-11-09T06:28:22;20.50;;;13.15;;
52686;SDS011;38584;49.426;8.396;2022-11-09T06:30:47;21.30;;;13.25;;
52686;SDS011;38584;49.426;8.396;2022-11-09T06:33:13;20.48;;;12.10;;
52686;SDS011;38584;49.426;8.396;2022-11-09T06:35:38;21.40;;;12.57;;
52686;SDS011;38584;49.426;8.396;2022-11-09T06:38:03;21.67;;;13.35;;
52686;SDS011;38584;49.426;8.396;2022-11-09T06:40:29;22.67;;;14.95;;
52686;SDS011;38584;49.426;8.396;2022-11-09T06:42:56;21.77;;;13.27;;
52686;SDS011;38584;49.426;8.396;2022-11-09T06:45:22;25.05;;;14.82;;
52686;SDS011;38584;49.426;8.396;2022-11-09T06:47:47;23.40;;;15.43;;
52686;SDS011;38584;49.426;8.396;2022-11-09T06:50:12;25.70;;;15.18;;
52686;SDS011;38584;49.426;8.396;2022-11-09T06:52:38;24.67;;;15.52;;
52686;SDS011;38584;49.426;8.396;2022-11-09T06:55:03;24.88;;;14.77;;
52686;SDS011;38584;49.426;8.396;2022-11-09T06:57:29;22.33;;;14.15;;
52686;SDS011;38584;49.426;8.396;2022-11-09T06:59:54;24.42;;;14.07;;
52686;SDS011;38584;49.426;8.396;2022-11-09T07:02:20;21.33;;;12.88;;
52686;SDS011;38584;49.426;8.396;2022-11-09T07:04:46;23.88;;;12.90;;
52686;SDS011;38584;49.426;8.396;2022-11-09T07:07:11;20.23;;;12.30;;
52686;SDS011;38584;49.426;8.396;2022-11-09T07:09:37;23.05;;;13.02;;
52686;SDS011;38584;49.426;8.396;2022-11-09T07:12:02;24.05;;;12.40;;
52686;SDS011;38584;49.426;8.396;2022-11-09T07:14:28;21.15;;;12.68;;
52686;SDS011;38584;49.426;8.396;2022-11-09T07:16:53;26.45;;;12.48;;
52686;SDS011;38584;49.426;8.396;2022-11-09T07:19:19;17.77;;;11.40;;
52686;SDS011;38584;49.426;8.396;2022-11-09T07:21:44;19.70;;;12.20;;
52686;SDS011;38584;49.426;8.396;2022-11-09T07:24:09;20.08;;;11.90;;
52686;SDS011;38584;49.426;8.396;2022-11-09T07:26:35;17.38;;;10.38;;
52686;SDS011;38584;49.426;8.396;2022-11-09T07:29:00;17.55;;;10.02;;
52686;SDS011;38584;49.426;8.396;2022-11-09T07:31:25;20.10;;;10.65;;
52686;SDS011;38584;49.426;8.396;2022-11-09T07:33:53;19.00;;;10.25;;
52686;SDS011;38584;49.426;8.396;2022-11-09T07:36:20;14.63;;;9.13;;
52686;SDS011;38584;49.426;8.396;2022-11-09T07:38:45;14.65;;;8.70;;
52686;SDS011;38584;49.426;8.396;2022-11-09T07:41:11;16.90;;;9.25;;
52686;SDS011;38584;49.426;8.396;2022-11-09T07:43:36;14.73;;;8.77;;
52686;SDS011;38584;49.426;8.396;2022-11-09T07:46:02;18.02;;;8.35;;
52686;SDS011;38584;49.426;8.396;2022-11-09T07:48:28;16.75;;;8.60;;
52686;SDS011;38584;49.426;8.396;2022-11-09T07:50:54;16.60;;;8.75;;
52686;SDS011;38584;49.426;8.396;2022-11-09T07:53:21;16.17;;;7.78;;
52686;SDS011;38584;49.426;8.396;2022-11-09T07:55:46;15.18;;;6.40;;
52686;SDS011;38584;49.426;8.396;2022-11-09T07:58:20;12.82;;;5.70;;
52686;SDS011;38584;49.426;8.396;2022-11-09T08:00:46;13.75;;;4.90;;
52686;SDS011;38584;49.426;8.396;2022-11-09T08:03:11;15.77;;;5.45;;
52686;SDS011;38584;49.426;8.396;2022-11-09T08:05:37;10.77;;;4.47;;
52686;SDS011;38584;49.426;8.396;2022-11-09T08:08:04;10.85;;;4.55;;
52686;SDS011;38584;49.426;8.396;2022-11-09T08:10:31;10.32;;;4.25;;
52686;SDS011;38584;49.426;8.396;2022-11-09T08:12:59;10.57;;;3.85;;
52686;SDS011;38584;49.426;8.396;2022-11-09T08:15:29;9.73;;;3.40;;
52686;SDS011;38584;49.426;8.396;2022-11-09T08:17:57;9.02;;;3.50;;
52686;SDS011;38584;49.426;8.396;2022-11-09T08:20:27;9.45;;;3.60;;
52686;SDS011;38584;49.426;8.396;2022-11-09T08:22:53;9.60;;;2.58;;
52686;SDS011;38584;49.426;8.396;2022-11-09T08:25:18;7.63;;;2.83;;
52686;SDS011;38584;49.426;8.396;2022-11-09T08:27:43;6.47;;;2.50;;
52686;SDS011;38584;49.426;8.396;2022-11-09T08:30:13;7.75;;;2.05;;
52686;SDS011;38584;49.426;8.396;2022-11-09T08:32:40;6.13;;;2.00;;
52686;SDS011;38584;49.426;8.396;2022-11-09T08:35:06;5.07;;;1.70;;
52686;SDS011;38584;49.426;8.396;2022-11-09T08:37:34;5.30;;;1.70;;
52686;SDS011;38584;49.426;8.396;2022-11-09T08:40:00;8.07;;;2.00;;
52686;SDS011;38584;49.426;8.396;2022-11-09T08:42:25;3.72;;;1.50;;
52686;SDS011;38584;49.426;8.396;2022-11-09T08:44:51;4.28;;;1.67;;
52686;SDS011;38584;49.426;8.396;2022-11-09T08:47:16;4.75;;;1.80;;
52686;SDS011;38584;49.426;8.396;2022-11-09T08:49:41;5.30;;;1.80;;
52686;SDS011;38584;49.426;8.396;2022-11-09T08:52:08;5.80;;;1.88;;
52686;SDS011;38584;49.426;8.396;2022-11-09T08:54:34;4.28;;;1.90;;
52686;SDS011;38584;49.426;8.396;2022-11-09T08:57:00;6.75;;;2.28;;
52686;SDS011;38584;49.426;8.396;2022-11-09T08:59:25;7.03;;;2.20;;
52686;SDS011;38584;49.426;8.396;2022-11-09T09:01:50;5.95;;;2.00;;
52686;SDS011;38584;49.426;8.396;2022-11-09T09:04:16;9.68;;;2.47;;
52686;SDS011;38584;49.426;8.396;2022-11-09T09:06:41;6.38;;;1.88;;
52686;SDS011;38584;49.426;8.396;2022-11-09T09:09:06;8.90;;;2.10;;
52686;SDS011;38584;49.426;8.396;2022-11-09T09:11:32;6.80;;;2.40;;
52686;SDS011;38584;49.426;8.396;2022-11-09T09:13:57;7.15;;;2.30;;
52686;SDS011;38584;49.426;8.396;2022-11-09T09:16:22;7.68;;;2.28;;
52686;SDS011;38584;49.426;8.396;2022-11-09T09:18:48;5.28;;;2.30;;
52686;SDS011;38584;49.426;8.396;2022-11-09T09:21:13;18.45;;;3.22;;
52686;SDS011;38584;49.426;8.396;2022-11-09T09:23:38;10.35;;;2.60;;
52686;SDS011;38584;49.426;8.396;2022-11-09T09:26:04;7.20;;;2.70;;
52686;SDS011;38584;49.426;8.396;2022-11-09T09:28:29;7.95;;;2.40;;
52686;SDS011;38584;49.426;8.396;2022-11-09T09:30:58;10.07;;;2.50;;
52686;SDS011;38584;49.426;8.396;2022-11-09T09:33:24;6.93;;;2.45;;
52686;SDS011;38584;49.426;8.396;2022-11-09T09:35:50;8.27;;;2.67;;
52686;SDS011;38584;49.426;8.396;2022-11-09T09:38:15;8.05;;;2.55;;
52686;SDS011;38584;49.426;8.396;2022-11-09T09:40:47;5.65;;;2.50;;
52686;SDS011;38584;49.426;8.396;2022-11-09T09:43:27;8.93;;;2.58;;
52686;SDS011;38584;49.426;8.396;2022-11-09T09:45:56;8.75;;;2.80;;
52686;SDS011;38584;49.426;8.396;2022-11-09T09:48:30;8.52;;;2.65;;
52686;SDS011;38584;49.426;8.396;2022-11-09T09:53:48;8.38;;;2.88;;
52686;SDS011;38584;49.426;8.396;2022-11-09T09:56:23;7.75;;;2.63;;
52686;SDS011;38584;49.426;8.396;2022-11-09T09:58:55;8.10;;;2.60;;
52686;SDS011;38584;49.426;8.396;2022-11-09T10:01:23;5.47;;;2.20;;
52686;SDS011;38584;49.426;8.396;2022-11-09T10:03:53;5.65;;;2.45;;
52686;SDS011;38584;49.426;8.396;2022-11-09T10:06:35;6.95;;;2.40;;
52686;SDS011;38584;49.426;8.396;2022-11-09T10:25:38;8.07;;;2.70;;
52686;SDS011;38584;49.426;8.396;2022-11-09T10:28:10;7.47;;;2.45;;
52686;SDS011;38584;49.426;8.396;2022-11-09T10:30:38;8.48;;;3.15;;
52686;SDS011;38584;49.426;8.396;2022-11-09T10:35:46;7.65;;;2.83;;
52686;SDS011;38584;49.426;8.396;2022-11-09T10:38:20;7.20;;;2.38;;
52686;SDS011;38584;49.426;8.396;2022-11-09T10:43:18;6.88;;;2.47;;
52686;SDS011;38584;49.426;8.396;2022-11-09T10:45:44;8.45;;;2.60;;
52686;SDS011;38584;49.426;8.396;2022-11-09T10:48:12;7.78;;;2.30;;
52686;SDS011;38584;49.426;8.396;2022-11-09T10:50:39;8.73;;;2.40;;
52686;SDS011;38584;49.426;8.396;2022-11-09T10:53:18;11.57;;;2.80;;
52686;SDS011;38584;49.426;8.396;2022-11-09T10:56:27;8.70;;;2.30;;
52686;SDS011;38584;49.426;8.396;2022-11-09T10:58:50;7.22;;;2.53;;
52686;SDS011;38584;49.426;8.396;2022-11-09T11:01:22;6.88;;;2.38;;
52686;SDS011;38584;49.426;8.396;2022-11-09T11:03:49;7.38;;;2.53;;
52686;SDS011;38584;49.426;8.396;2022-11-09T11:11:14;7.20;;;2.60;;
52686;SDS011;38584;49.426;8.396;2022-11-09T11:13:41;6.70;;;2.58;;
52686;SDS011;38584;49.426;8.396;2022-11-09T11:16:13;5.90;;;2.30;;
52686;SDS011;38584;49.426;8.396;2022-11-09T11:18:43;5.60;;;1.93;;
52686;SDS011;38584;49.426;8.396;2022-11-09T11:21:20;8.18;;;2.30;;
52686;SDS011;38584;49.426;8.396;2022-11-09T11:24:01;7.45;;;2.25;;
52686;SDS011;38584;49.426;8.396;2022-11-09T11:26:34;6.07;;;2.00;;
52686;SDS011;38584;49.426;8.396;2022-11-09T11:29:24;6.43;;;2.00;;
52686;SDS011;38584;49.426;8.396;2022-11-09T11:31:53;6.45;;;2.20;;
52686;SDS011;38584;49.426;8.396;2022-11-09T11:34:19;5.88;;;2.08;;
52686;SDS011;38584;49.426;8.396;2022-11-09T11:36:51;5.93;;;2.05;;
52686;SDS011;38584;49.426;8.396;2022-11-09T11:39:40;6.90;;;2.20;;
52686;SDS011;38584;49.426;8.396;2022-11-09T11:42:29;5.72;;;1.95;;
52686;SDS011;38584;49.426;8.396;2022-11-09T11:45:10;8.15;;;2.20;;
52686;SDS011;38584;49.426;8.396;2022-11-09T11:58:41;10.75;;;2.83;;
52686;SDS011;38584;49.426;8.396;2022-11-09T12:09:41;10.00;;;2.60;;
52686;SDS011;38584;49.426;8.396;2022-11-09T12:12:15;8.13;;;2.47;;
52686;SDS011;38584;49.426;8.396;2022-11-09T12:14:54;7.07;;;2.47;;
52686;SDS011;38584;49.426;8.396;2022-11-09T12:36:25;7.97;;;2.05;;
52686;SDS011;38584;49.426;8.396;2022-11-09T12:38:59;9.52;;;2.42;;
52686;SDS011;38584;49.426;8.396;2022-11-09T12:41:30;6.45;;;2.35;;
52686;SDS011;38584;49.426;8.396;2022-11-09T12:46:39;10.93;;;2.45;;
52686;SDS011;38584;49.426;8.396;2022-11-09T12:49:16;9.13;;;2.88;;
52686;SDS011;38584;49.426;8.396;2022-11-09T12:51:49;9.70;;;2.45;;
52686;SDS011;38584;49.426;8.396;2022-11-09T12:54:16;12.13;;;2.78;;
52686;SDS011;38584;49.426;8.396;2022-11-09T12:57:24;12.60;;;3.08;;
52686;SDS011;38584;49.426;8.396;2022-11-09T12:59:32;9.25;;;2.33;;
52686;SDS011;38584;49.426;8.396;2022-11-09T13:01:59;13.15;;;2.50;;
52686;SDS011;38584;49.426;8.396;2022-11-09T13:04:26;7.78;;;2.00;;
52686;SDS011;38584;49.426;8.396;2022-11-09T13:07:14;9.20;;;2.15;;
52686;SDS011;38584;49.426;8.396;2022-11-09T13:09:42;7.25;;;2.67;;
52686;SDS011;38584;49.426;8.396;2022-11-09T13:12:17;7.90;;;2.05;;
52686;SDS011;38584;49.426;8.396;2022-11-09T13:14:43;9.25;;;2.08;;
52686;SDS011;38584;49.426;8.396;2022-11-09T13:19:53;12.32;;;2.38;;
52686;SDS011;38584;49.426;8.396;2022-11-09T13:27:40;16.17;;;2.38;;
52686;SDS011;38584;49.426;8.396;2022-11-09T13:40:41;9.10;;;2.38;;
52686;SDS011;38584;49.426;8.396;2022-11-09T13:47:59;8.10;;;2.13;;
52686;SDS011;38584;49.426;8.396;2022-11-09T13:50:25;6.55;;;2.10;;
52686;SDS011;38584;49.426;8.396;2022-11-09T13:52:55;7.72;;;2.50;;
52686;SDS011;38584;49.426;8.396;2022-11-09T13:58:22;7.15;;;2.20;;
52686;SDS011;38584;49.426;8.396;2022-11-09T14:00:50;7.57;;;2.50;;
52686;SDS011;38584;49.426;8.396;2022-11-09T14:03:23;7.13;;;2.08;;
52686;SDS011;38584;49.426;8.396;2022-11-09T14:05:57;9.90;;;2.30;;
52686;SDS011;38584;49.426;8.396;2022-11-09T14:08:27;8.98;;;2.22;;
52686;SDS011;38584;49.426;8.396;2022-11-09T14:22:12;11.52;;;2.60;;
52686;SDS011;38584;49.426;8.396;2022-11-09T14:24:39;8.23;;;2.30;;
52686;SDS011;38584;49.426;8.396;2022-11-09T14:29:32;9.68;;;2.20;;
52686;SDS011;38584;49.426;8.396;2022-11-09T14:31:59;10.13;;;2.28;;
52686;SDS011;38584;49.426;8.396;2022-11-09T14:37:52;6.95;;;2.10;;
52686;SDS011;38584;49.426;8.396;2022-11-09T14:40:20;9.32;;;2.38;;
52686;SDS011;38584;49.426;8.396;2022-11-09T14:42:48;8.30;;;2.83;;
52686;SDS011;38584;49.426;8.396;2022-11-09T14:45:16;8.15;;;2.00;;
52686;SDS011;38584;49.426;8.396;2022-11-09T14:47:43;10.63;;;2.60;;
52686;SDS011;38584;49.426;8.396;2022-11-09T14:50:28;7.95;;;2.35;;
52686;SDS011;38584;49.426;8.396;2022-11-09T14:52:56;7.38;;;2.20;;
52686;SDS011;38584;49.426;8.396;2022-11-09T14:55:22;10.82;;;2.60;;
52686;SDS011;38584;49.426;8.396;2022-11-09T14:57:48;10.77;;;2.28;;
52686;SDS011;38584;49.426;8.396;2022-11-09T15:00:26;11.27;;;2.90;;
52686;SDS011;38584;49.426;8.396;2022-11-09T15:02:54;10.43;;;2.92;;
52686;SDS011;38584;49.426;8.396;2022-11-09T15:05:29;13.75;;;3.90;;
52686;SDS011;38584;49.426;8.396;2022-11-09T15:08:03;9.57;;;2.72;;
52686;SDS011;38584;49.426;8.396;2022-11-09T15:10:33;7.70;;;2.50;;
52686;SDS011;38584;49.426;8.396;2022-11-09T15:12:59;9.82;;;2.45;;
52686;SDS011;38584;49.426;8.396;2022-11-09T15:15:27;8.77;;;2.38;;
52686;SDS011;38584;49.426;8.396;2022-11-09T15:17:53;7.13;;;2.50;;
52686;SDS011;38584;49.426;8.396;2022-11-09T15:27:42;8.77;;;2.60;;
52686;SDS011;38584;49.426;8.396;2022-11-09T15:30:25;11.65;;;2.78;;
52686;SDS011;38584;49.426;8.396;2022-11-09T15:33:15;8.70;;;2.20;;
52686;SDS011;38584;49.426;8.396;2022-11-09T15:35:56;8.38;;;2.63;;
52686;SDS011;38584;49.426;8.396;2022-11-09T15:40:56;8.88;;;2.65;;
52686;SDS011;38584;49.426;8.396;2022-11-09T15:43:22;9.20;;;2.60;;
52686;SDS011;38584;49.426;8.396;2022-11-09T15:45:47;7.28;;;2.53;;
52686;SDS011;38584;49.426;8.396;2022-11-09T15:48:13;8.13;;;2.47;;
52686;SDS011;38584;49.426;8.396;2022-11-09T15:50:38;9.73;;;2.65;;
52686;SDS011;38584;49.426;8.396;2022-11-09T15:53:04;9.70;;;3.10;;
52686;SDS011;38584;49.426;8.396;2022-11-09T15:55:29;7.68;;;3.10;;
52686;SDS011;38584;49.426;8.396;2022-11-09T15:57:54;10.50;;;3.50;;
52686;SDS011;38584;49.426;8.396;2022-11-09T16:00:20;10.57;;;3.42;;
52686;SDS011;38584;49.426;8.396;2022-11-09T16:02:46;10.43;;;3.42;;
52686;SDS011;38584;49.426;8.396;2022-11-09T16:05:12;9.13;;;3.17;;
52686;SDS011;38584;49.426;8.396;2022-11-09T16:07:45;12.35;;;2.90;;
52686;SDS011;38584;49.426;8.396;2022-11-09T16:10:15;11.27;;;2.97;;
52686;SDS011;38584;49.426;8.396;2022-11-09T16:12:41;8.57;;;2.95;;
52686;SDS011;38584;49.426;8.396;2022-11-09T16:15:07;10.30;;;3.22;;
52686;SDS011;38584;49.426;8.396;2022-11-09T16:17:32;11.27;;;3.30;;
52686;SDS011;38584;49.426;8.396;2022-11-09T16:19:58;10.73;;;3.25;;
52686;SDS011;38584;49.426;8.396;2022-11-09T16:22:27;9.35;;;3.13;;
52686;SDS011;38584;49.426;8.396;2022-11-09T16:24:53;11.30;;;3.47;;
52686;SDS011;38584;49.426;8.396;2022-11-09T16:27:19;12.82;;;3.67;;
52686;SDS011;38584;49.426;8.396;2022-11-09T16:29:45;11.60;;;3.05;;
52686;SDS011;38584;49.426;8.396;2022-11-09T16:32:10;9.48;;;3.30;;
52686;SDS011;38584;49.426;8.396;2022-11-09T16:34:36;12.30;;;3.42;;
52686;SDS011;38584;49.426;8.396;2022-11-09T16:37:02;8.18;;;2.80;;
52686;SDS011;38584;49.426;8.396;2022-11-09T16:39:27;9.95;;;3.03;;
52686;SDS011;38584;49.426;8.396;2022-11-09T16:41:53;8.55;;;2.75;;
52686;SDS011;38584;49.426;8.396;2022-11-09T16:44:19;8.93;;;3.05;;